sensor_id;sensor_type;location;lat;lon;timestamp;pressure;altitude;pressure_sealevel;temperature;humidity
48774;BME280;34576;0.000;0.000;2024-01-25T00:01:41;97957.31;;;16.51;65.45
48774;BME280;34576;0.000;0.000;2024-01-25T00:08:41;97971.41;;;16.51;65.35
48774;BME280;34576;0.000;0.000;2024-01-25T00:15:41;97977.06;;;16.55;66.04
48774;BME280;34576;0.000;0.000;2024-01-25T00:22:42;97975.44;;;16.54;66.08
48774;BME280;34576;0.000;0.000;2024-01-25T00:29:42;97972.31;;;16.57;65.94
48774;BME280;34576;0.000;0.000;2024-01-25T00:36:43;97968.88;;;16.56;65.99
48774;BME280;34576;0.000;0.000;2024-01-25T00:43:44;97964.09;;;16.59;66.66
48774;BME280;34576;0.000;0.000;2024-01-25T00:50:44;97967.34;;;16.61;66.36
48774;BME280;34576;0.000;0.000;2024-01-25T00:57:45;97974.84;;;16.64;66.78
48774;BME280;34576;0.000;0.000;2024-01-25T01:04:45;97958.13;;;16.63;66.34
48774;BME280;34576;0.000;0.000;2024-01-25T01:11:46;97973.81;;;16.65;66.86
48774;BME280;34576;0.000;0.000;2024-01-25T01:18:46;97956.81;;;16.66;66.99
48774;BME280;34576;0.000;0.000;2024-01-25T01:25:47;97968.28;;;16.66;67.21
48774;BME280;34576;0.000;0.000;2024-01-25T01:32:47;97962.13;;;16.66;67.13
48774;BME280;34576;0.000;0.000;2024-01-25T01:39:48;97963.75;;;16.67;66.68
48774;BME280;34576;0.000;0.000;2024-01-25T01:46:48;97956.13;;;16.70;66.39
48774;BME280;34576;0.000;0.000;2024-01-25T01:53:49;97954.03;;;16.72;66.54
48774;BME280;34576;0.000;0.000;2024-01-25T02:00:49;97959.59;;;16.71;66.87
48774;BME280;34576;0.000;0.000;2024-01-25T02:07:50;97964.19;;;16.76;67.43
48774;BME280;34576;0.000;0.000;2024-01-25T02:14:52;97947.22;;;16.77;64.71
48774;BME280;34576;0.000;0.000;2024-01-25T02:21:53;97947.09;;;16.71;67.50
48774;BME280;34576;0.000;0.000;2024-01-25T02:28:53;97935.69;;;16.71;66.92
48774;BME280;34576;0.000;0.000;2024-01-25T02:35:54;97936.72;;;16.70;67.38
48774;BME280;34576;0.000;0.000;2024-01-25T02:59:03;97924.00;;;16.72;66.95
48774;BME280;34576;0.000;0.000;2024-01-25T03:06:05;97915.31;;;16.77;66.67
48774;BME280;34576;0.000;0.000;2024-01-25T03:13:05;97926.75;;;16.77;66.82
48774;BME280;34576;0.000;0.000;2024-01-25T03:20:06;97932.31;;;16.76;67.20
48774;BME280;34576;0.000;0.000;2024-01-25T03:27:06;97930.00;;;16.79;67.65
48774;BME280;34576;0.000;0.000;2024-01-25T03:34:13;97925.16;;;16.76;66.54
48774;BME280;34576;0.000;0.000;2024-01-25T03:41:13;97924.69;;;16.79;66.53
48774;BME280;34576;0.000;0.000;2024-01-25T03:48:13;97925.72;;;16.78;66.08
48774;BME280;34576;0.000;0.000;2024-01-25T03:55:14;97920.41;;;16.78;66.58
48774;BME280;34576;0.000;0.000;2024-01-25T04:02:14;97926.50;;;16.79;66.80
48774;BME280;34576;0.000;0.000;2024-01-25T04:09:14;97931.13;;;16.83;66.90
48774;BME280;34576;0.000;0.000;2024-01-25T04:16:17;97943.84;;;16.81;66.49
48774;BME280;34576;0.000;0.000;2024-01-25T04:23:18;97951.25;;;16.79;65.80
48774;BME280;34576;0.000;0.000;2024-01-25T04:30:18;97934.28;;;16.80;66.43
48774;BME280;34576;0.000;0.000;2024-01-25T04:37:18;97944.28;;;16.90;67.08
48774;BME280;34576;0.000;0.000;2024-01-25T04:44:18;97952.63;;;16.94;65.69
48774;BME280;34576;0.000;0.000;2024-01-25T04:51:19;97966.47;;;16.96;65.98
48774;BME280;34576;0.000;0.000;2024-01-25T04:58:22;97973.41;;;16.97;66.15
48774;BME280;34576;0.000;0.000;2024-01-25T05:05:22;97981.47;;;17.02;66.61
48774;BME280;34576;0.000;0.000;2024-01-25T05:12:23;97999.84;;;17.03;66.44
48774;BME280;34576;0.000;0.000;2024-01-25T05:19:23;98013.16;;;17.03;66.74
48774;BME280;34576;0.000;0.000;2024-01-25T05:26:25;98012.31;;;17.03;66.75
48774;BME280;34576;0.000;0.000;2024-01-25T05:33:25;98023.53;;;17.05;67.64
48774;BME280;34576;0.000;0.000;2024-01-25T05:40:26;98028.50;;;17.01;68.43
48774;BME280;34576;0.000;0.000;2024-01-25T05:47:26;98044.25;;;15.05;62.29
48774;BME280;34576;0.000;0.000;2024-01-25T05:54:26;98040.88;;;14.79;62.07
48774;BME280;34576;0.000;0.000;2024-01-25T06:01:27;98036.19;;;16.38;61.66
48774;BME280;34576;0.000;0.000;2024-01-25T06:08:29;98044.72;;;16.64;62.38
48774;BME280;34576;0.000;0.000;2024-01-25T06:15:29;98030.88;;;16.62;63.47
48774;BME280;34576;0.000;0.000;2024-01-25T06:22:29;98027.19;;;16.63;63.60
48774;BME280;34576;0.000;0.000;2024-01-25T06:29:29;98031.69;;;16.63;63.97
48774;BME280;34576;0.000;0.000;2024-01-25T06:36:30;98036.75;;;16.64;63.75
48774;BME280;34576;0.000;0.000;2024-01-25T06:43:30;98033.31;;;16.64;63.92
48774;BME280;34576;0.000;0.000;2024-01-25T06:50:30;98027.19;;;16.63;64.16
48774;BME280;34576;0.000;0.000;2024-01-25T06:57:31;98041.50;;;16.62;64.42
48774;BME280;34576;0.000;0.000;2024-01-25T07:04:31;98041.50;;;16.62;64.20
48774;BME280;34576;0.000;0.000;2024-01-25T07:11:33;98039.09;;;16.61;64.45
48774;BME280;34576;0.000;0.000;2024-01-25T07:18:33;98028.47;;;16.61;64.32
48774;BME280;34576;0.000;0.000;2024-01-25T07:25:33;98029.50;;;16.60;64.48
48774;BME280;34576;0.000;0.000;2024-01-25T07:32:33;98038.25;;;16.60;64.51
48774;BME280;34576;0.000;0.000;2024-01-25T07:39:35;98028.94;;;16.58;64.51
48774;BME280;34576;0.000;0.000;2024-01-25T07:46:36;98033.88;;;16.54;64.55
48774;BME280;34576;0.000;0.000;2024-01-25T07:53:36;98039.44;;;16.52;64.51
48774;BME280;34576;0.000;0.000;2024-01-25T08:00:36;98027.41;;;16.50;64.68
48774;BME280;34576;0.000;0.000;2024-01-25T08:07:37;98033.56;;;16.50;64.34
48774;BME280;34576;0.000;0.000;2024-01-25T08:14:37;98025.00;;;16.48;64.33
48774;BME280;34576;0.000;0.000;2024-01-25T08:21:37;98025.00;;;16.48;64.42
48774;BME280;34576;0.000;0.000;2024-01-25T08:28:41;98020.94;;;16.46;64.47
48774;BME280;34576;0.000;0.000;2024-01-25T08:35:43;98030.31;;;16.48;64.23
48774;BME280;34576;0.000;0.000;2024-01-25T08:42:43;98044.06;;;16.45;64.53
48774;BME280;34576;0.000;0.000;2024-01-25T08:49:44;98049.13;;;16.47;64.28
48774;BME280;34576;0.000;0.000;2024-01-25T08:56:44;98051.56;;;16.48;63.95
48774;BME280;34576;0.000;0.000;2024-01-25T09:03:44;98049.38;;;16.45;63.46
48774;BME280;34576;0.000;0.000;2024-01-25T09:10:45;98052.03;;;16.45;63.12
48774;BME280;34576;0.000;0.000;2024-01-25T09:17:45;98046.13;;;16.43;62.42
48774;BME280;34576;0.000;0.000;2024-01-25T09:24:46;98044.28;;;16.44;62.26
48774;BME280;34576;0.000;0.000;2024-01-25T09:31:46;98042.91;;;16.41;62.14
48774;BME280;34576;0.000;0.000;2024-01-25T09:38:46;98049.25;;;16.40;61.75
48774;BME280;34576;0.000;0.000;2024-01-25T09:45:48;98043.94;;;16.40;61.41
48774;BME280;34576;0.000;0.000;2024-01-25T09:52:55;98064.59;;;16.38;61.60
48774;BME280;34576;0.000;0.000;2024-01-25T09:59:57;98063.59;;;16.39;61.30
48774;BME280;34576;0.000;0.000;2024-01-25T10:06:58;98063.59;;;16.39;61.18
48774;BME280;34576;0.000;0.000;2024-01-25T10:13:58;98057.22;;;16.40;61.07
48774;BME280;34576;0.000;0.000;2024-01-25T10:21:00;98056.66;;;16.38;61.17
48774;BME280;34576;0.000;0.000;2024-01-25T10:28:02;98056.75;;;16.43;61.87
48774;BME280;34576;0.000;0.000;2024-01-25T10:35:03;98057.81;;;16.42;61.96
48774;BME280;34576;0.000;0.000;2024-01-25T10:42:04;98044.28;;;16.44;61.95
48774;BME280;34576;0.000;0.000;2024-01-25T10:49:04;98042.91;;;16.41;62.04
48774;BME280;34576;0.000;0.000;2024-01-25T10:56:06;98040.00;;;16.43;61.70
48774;BME280;34576;0.000;0.000;2024-01-25T11:03:06;98027.75;;;16.42;61.87
48774;BME280;34576;0.000;0.000;2024-01-25T11:10:09;98017.13;;;16.42;61.71
48774;BME280;34576;0.000;0.000;2024-01-25T11:17:14;98005.72;;;16.41;61.62
48774;BME280;34576;0.000;0.000;2024-01-25T11:24:15;97997.75;;;16.41;61.65
48774;BME280;34576;0.000;0.000;2024-01-25T11:31:16;97993.22;;;16.42;61.17
48774;BME280;34576;0.000;0.000;2024-01-25T11:38:16;97982.59;;;16.42;61.07
48774;BME280;34576;0.000;0.000;2024-01-25T11:45:17;97973.28;;;16.39;61.42
48774;BME280;34576;0.000;0.000;2024-01-25T11:52:17;97971.19;;;16.41;61.68
48774;BME280;34576;0.000;0.000;2024-01-25T11:59:18;97965.88;;;16.41;61.44
48774;BME280;34576;0.000;0.000;2024-01-25T12:06:18;97956.28;;;16.40;61.57
48774;BME280;34576;0.000;0.000;2024-01-25T12:13:18;97947.28;;;16.41;61.39
48774;BME280;34576;0.000;0.000;2024-01-25T12:20:19;97941.97;;;16.41;61.84
48774;BME280;34576;0.000;0.000;2024-01-25T12:27:20;97938.28;;;16.42;62.03
48774;BME280;34576;0.000;0.000;2024-01-25T12:34:21;97924.19;;;16.42;62.33
48774;BME280;34576;0.000;0.000;2024-01-25T12:41:21;97921.28;;;16.43;62.36
48774;BME280;34576;0.000;0.000;2024-01-25T12:48:21;97903.78;;;16.42;62.09
48774;BME280;34576;0.000;0.000;2024-01-25T12:55:21;97894.75;;;16.43;61.88
48774;BME280;34576;0.000;0.000;2024-01-25T13:02:22;97889.41;;;16.43;61.69
48774;BME280;34576;0.000;0.000;2024-01-25T13:09:22;97886.75;;;16.43;61.55
48774;BME280;34576;0.000;0.000;2024-01-25T13:16:23;97875.59;;;16.41;61.33
48774;BME280;34576;0.000;0.000;2024-01-25T13:23:23;97871.06;;;16.42;61.29
48774;BME280;34576;0.000;0.000;2024-01-25T13:30:23;97871.06;;;16.42;61.16
48774;BME280;34576;0.000;0.000;2024-01-25T13:37:23;97854.34;;;16.41;61.09
48774;BME280;34576;0.000;0.000;2024-01-25T13:44:24;97850.66;;;16.42;61.03
48774;BME280;34576;0.000;0.000;2024-01-25T13:51:24;97841.06;;;16.41;60.98
48774;BME280;34576;0.000;0.000;2024-01-25T13:58:24;97847.66;;;16.38;60.93
48774;BME280;34576;0.000;0.000;2024-01-25T14:05:25;97851.94;;;16.39;61.02
48774;BME280;34576;0.000;0.000;2024-01-25T14:12:25;97845.81;;;16.39;60.88
48774;BME280;34576;0.000;0.000;2024-01-25T14:19:26;97850.31;;;16.38;60.60
48774;BME280;34576;0.000;0.000;2024-01-25T14:26:27;97835.44;;;16.37;60.63
48774;BME280;34576;0.000;0.000;2024-01-25T14:33:27;97821.56;;;16.35;60.55
48774;BME280;34576;0.000;0.000;2024-01-25T14:40:27;97826.09;;;16.35;60.48
48774;BME280;34576;0.000;0.000;2024-01-25T14:47:27;97818.91;;;16.35;60.38
48774;BME280;34576;0.000;0.000;2024-01-25T14:54:28;97812.81;;;16.35;60.48
48774;BME280;34576;0.000;0.000;2024-01-25T15:01:28;97798.94;;;16.33;60.37
48774;BME280;34576;0.000;0.000;2024-01-25T15:08:37;97804.25;;;16.33;60.45
48774;BME280;34576;0.000;0.000;2024-01-25T15:15:37;97795.50;;;16.32;60.30
48774;BME280;34576;0.000;0.000;2024-01-25T15:22:38;97792.25;;;16.30;60.23
48774;BME280;34576;0.000;0.000;2024-01-25T15:29:39;97789.94;;;16.34;60.17
48774;BME280;34576;0.000;0.000;2024-01-25T15:36:39;97779.81;;;16.31;60.22
48774;BME280;34576;0.000;0.000;2024-01-25T15:43:43;97777.16;;;16.31;60.10
48774;BME280;34576;0.000;0.000;2024-01-25T15:50:43;97780.03;;;16.29;60.38
48774;BME280;34576;0.000;0.000;2024-01-25T15:57:44;97767.81;;;16.28;60.15
48774;BME280;34576;0.000;0.000;2024-01-25T16:04:44;97779.47;;;16.27;59.93
48774;BME280;34576;0.000;0.000;2024-01-25T16:11:44;97772.88;;;16.30;59.89
48774;BME280;34576;0.000;0.000;2024-01-25T16:18:45;97779.22;;;16.29;59.87
48774;BME280;34576;0.000;0.000;2024-01-25T16:25:45;97786.63;;;16.27;60.02
48774;BME280;34576;0.000;0.000;2024-01-25T16:32:45;97787.66;;;16.26;59.98
48774;BME280;34576;0.000;0.000;2024-01-25T16:39:46;97785.00;;;16.26;59.94
48774;BME280;34576;0.000;0.000;2024-01-25T16:46:46;97789.28;;;16.27;60.01
48774;BME280;34576;0.000;0.000;2024-01-25T16:53:46;97801.53;;;16.28;60.55
48774;BME280;34576;0.000;0.000;2024-01-25T17:00:46;97793.31;;;16.29;60.87
48774;BME280;34576;0.000;0.000;2024-01-25T17:07:48;97798.03;;;16.27;61.03
48774;BME280;34576;0.000;0.000;2024-01-25T17:14:49;97796.44;;;16.26;60.94
48774;BME280;34576;0.000;0.000;2024-01-25T17:21:49;97797.25;;;16.27;60.89
48774;BME280;34576;0.000;0.000;2024-01-25T17:28:49;97800.69;;;16.27;60.73
48774;BME280;34576;0.000;0.000;2024-01-25T17:35:50;97800.69;;;16.27;60.70
48774;BME280;34576;0.000;0.000;2024-01-25T17:42:50;97792.50;;;16.29;60.81
48774;BME280;34576;0.000;0.000;2024-01-25T17:49:51;97803.59;;;16.26;60.87
48774;BME280;34576;0.000;0.000;2024-01-25T17:56:51;97790.91;;;16.28;61.37
48774;BME280;34576;0.000;0.000;2024-01-25T18:03:51;97798.63;;;16.29;61.84
48774;BME280;34576;0.000;0.000;2024-01-25T18:10:52;97792.50;;;16.29;62.18
48774;BME280;34576;0.000;0.000;2024-01-25T18:17:55;97781.06;;;16.28;62.25
48774;BME280;34576;0.000;0.000;2024-01-25T18:24:55;97789.84;;;16.29;61.99
48774;BME280;34576;0.000;0.000;2024-01-25T18:31:56;97800.31;;;16.35;61.86
48774;BME280;34576;0.000;0.000;2024-01-25T18:38:56;97802.06;;;16.30;62.17
48774;BME280;34576;0.000;0.000;2024-01-25T18:45:56;97808.91;;;16.26;62.20
48774;BME280;34576;0.000;0.000;2024-01-25T18:52:58;97806.72;;;16.22;62.13
48774;BME280;34576;0.000;0.000;2024-01-25T18:59:58;97813.66;;;16.24;61.96
48774;BME280;34576;0.000;0.000;2024-01-25T19:06:59;97799.00;;;16.21;61.92
48774;BME280;34576;0.000;0.000;2024-01-25T19:13:59;97797.97;;;16.22;61.80
48774;BME280;34576;0.000;0.000;2024-01-25T19:21:00;97804.31;;;16.21;61.85
48774;BME280;34576;0.000;0.000;2024-01-25T19:28:00;97805.09;;;16.21;61.87
48774;BME280;34576;0.000;0.000;2024-01-25T19:35:01;97797.13;;;16.21;61.81
48774;BME280;34576;0.000;0.000;2024-01-25T19:42:01;97802.91;;;16.18;61.71
48774;BME280;34576;0.000;0.000;2024-01-25T19:49:01;97802.13;;;16.18;61.76
48774;BME280;34576;0.000;0.000;2024-01-25T19:56:02;97800.50;;;16.17;61.84
48774;BME280;34576;0.000;0.000;2024-01-25T20:03:02;97793.34;;;16.17;61.80
48774;BME280;34576;0.000;0.000;2024-01-25T20:10:03;97774.75;;;16.17;61.69
48774;BME280;34576;0.000;0.000;2024-01-25T20:17:04;97767.84;;;16.16;61.65
48774;BME280;34576;0.000;0.000;2024-01-25T20:24:05;97797.28;;;16.15;61.74
48774;BME280;34576;0.000;0.000;2024-01-25T20:31:05;97806.28;;;16.14;61.75
48774;BME280;34576;0.000;0.000;2024-01-25T20:38:05;97820.22;;;16.21;61.63
48774;BME280;34576;0.000;0.000;2024-01-25T20:45:06;97819.72;;;16.36;61.39
48774;BME280;34576;0.000;0.000;2024-01-25T20:52:06;97814.50;;;16.41;61.56
48774;BME280;34576;0.000;0.000;2024-01-25T20:59:08;97817.72;;;16.43;61.58
48774;BME280;34576;0.000;0.000;2024-01-25T21:06:11;97797.63;;;16.47;61.92
48774;BME280;34576;0.000;0.000;2024-01-25T21:13:12;97801.44;;;16.68;61.91
48774;BME280;34576;0.000;0.000;2024-01-25T21:20:12;97789.28;;;16.55;63.76
48774;BME280;34576;0.000;0.000;2024-01-25T21:27:12;97785.34;;;16.58;64.31
48774;BME280;34576;0.000;0.000;2024-01-25T21:34:13;97785.09;;;16.60;64.58
48774;BME280;34576;0.000;0.000;2024-01-25T21:41:13;97785.09;;;16.60;64.66
48774;BME280;34576;0.000;0.000;2024-01-25T21:48:13;97789.38;;;16.61;65.03
48774;BME280;34576;0.000;0.000;2024-01-25T21:55:14;97791.00;;;16.62;65.41
48774;BME280;34576;0.000;0.000;2024-01-25T22:02:15;97786.22;;;16.64;65.34
48774;BME280;34576;0.000;0.000;2024-01-25T22:09:15;97790.03;;;16.68;65.14
48774;BME280;34576;0.000;0.000;2024-01-25T22:16:16;97789.19;;;16.67;65.38
48774;BME280;34576;0.000;0.000;2024-01-25T22:23:16;97784.72;;;16.68;65.37
48774;BME280;34576;0.000;0.000;2024-01-25T22:30:16;97781.03;;;16.69;65.51
48774;BME280;34576;0.000;0.000;2024-01-25T22:37:16;97763.22;;;16.69;65.64
48774;BME280;34576;0.000;0.000;2024-01-25T22:44:17;97773.13;;;16.74;65.65
48774;BME280;34576;0.000;0.000;2024-01-25T22:51:17;97762.81;;;16.78;65.70
48774;BME280;34576;0.000;0.000;2024-01-25T22:58:17;97770.56;;;16.79;66.06
48774;BME280;34576;0.000;0.000;2024-01-25T23:05:18;97774.84;;;16.80;65.81
48774;BME280;34576;0.000;0.000;2024-01-25T23:12:19;97786.00;;;16.82;66.01
48774;BME280;34576;0.000;0.000;2024-01-25T23:19:19;97787.63;;;16.83;66.23
48774;BME280;34576;0.000;0.000;2024-01-25T23:26:21;97805.75;;;16.86;66.53
48774;BME280;34576;0.000;0.000;2024-01-25T23:33:21;97794.66;;;16.89;67.12
48774;BME280;34576;0.000;0.000;2024-01-25T23:40:22;97791.53;;;16.93;66.92
48774;BME280;34576;0.000;0.000;2024-01-25T23:47:23;97800.53;;;16.91;67.21
48774;BME280;34576;0.000;0.000;2024-01-25T23:54:23;97810.72;;;16.95;67.34
